Terminal Aerodrome Forecast
Issued by NWS

Home | Current Version | Previous Version | Text Only | Print | Product List | Glossary On
Versions: 1 2 3 4 5 6 7 8 9 10 11 12 13 14 15 16 17 18 19
000
FTUS41 KCAR 261141
TAFBHB
TAF
KBHB 261141Z 2612/2712 VRB03KT P6SM BKN200
     FM261800 36006KT 3SM -RASN SCT015 OVC025
     FM261900 03008KT 1SM -SN VV008
     FM262300 03009KT 1/4SM +SN VV005
     FM270400 05025G45KT 5SM -FZRAPL OVC010
     FM270900 36020G45KT 2SM -SN OVC008
      AMD LTD TO CLD VIS AND WIND=

USA.gov is the U.S. government's official web portal to all federal, state and local government web resources and services.